Oneida, Wisconsin
Current Conditions -  °F | °C
As of 11:06 AM on Friday 28 Nov 2014 (Local Time) from KGRB Reporting Station
Light Snow Light Snow  
Wind Chill:   Ceiling: 3500
Heat Index: 18°   Visibility: 3mi
Dew Point: 14°   Wind: 9mph
Humidity: 84%   Direction: 160°SSE
Pressure: 30.13"   Gusts: NA
Location:  44.49°N, 88.22°W
Report Text: KGRB 281706Z 16008KT 3SM -SN BR FEW030 BKN035 OVC047 M08/M10 A3013 RMK AO2 P0000 T10781100
Loading
Personal Weather Stations






























Interactive Weather Map New forecast layout! Learn more

10-Day Weather Forecast

Advertisements
Track Severe Weather on mobile